Baktiyor Tagybergen

Ojeador - Aktobe
25 Jun 2028
Domingo
Continuar

Personalidad

Adaptabilidad (19) Ambición (5) Controversia (2) Lealtad (9) Presión (12) Profesionalismo (11) Deportividad (18) Temperamento (7)

Perfil

Estilo de dirección Democrático
Licencia Continental B
Determinación 5
Gestión de personas 6
Motivación 7
Disciplina 4
Satisfacción laboral
100%
Fatiga
0%
Cargo Ojeador
Salario 26.8K p/s
Contrato 14.03.2029

Rendimiento

Comportamiento Bueno
Efectividad del entrenamiento
34%
Desarrollo de jugadores
25%
Prevención de lesiones
25%
Implementación táctica
50%

Eventos recientes

Asistió a una reunión de captación ahora
Recomendó un objetivo de fichaje ahora
Recomendó un objetivo de fichaje ahora
Recomendó un objetivo de fichaje ahora
Recomendó un objetivo de fichaje ahora
Recomendó un objetivo de fichaje 7d atrás
Recomendó un objetivo de fichaje 7d atrás
Presentó un informe a la directiva 7d atrás

Actualmente siguiendo

153
Jugador Club Estado Habilidad Confianza Observado Última observación Último voto
Nūrğaini Böribaev Okzhetpes Informe listo 98 / 98 75% 2 / 1m 21.06.2028 Aprobar
Askhat Suyumbayev Zhetysu Activo 91 / 91 30% 1 / 1m 21.06.2028 -
Olzhas Baibek Kairat Informe listo 102 / 94 76% 1 15.06.2028 -
Nūrali Zhaqsylyq Astana Informe listo 103 / 96 76% 1 14.06.2028 Aprobar
Amine Talal Tobol Activo 111 / 97 72% 1 07.02.2028 -
Vladislav Sarveli Nizhniy Novgorod Activo 116 / 116 40% 9 19.01.2028 -
Everton Moraes Shakhter Activo 106 / 119 40% 2 19.01.2028 -
Daniel Barrea Godoy Cruz Activo 126 / 113 40% 9 18.01.2028 -
Anton Betyuzhnov Dinamo Vologda Activo 77 / 69 40% 1 18.01.2028 -
Dmitry Kamenschikov Chernomorets Activo 97 / 95 40% 1 18.01.2028 -
Magomed Nasibov Pobeda Activo 90 / 92 40% 5 17.01.2028 -
Juan David Rueda Alianza Petrolera Activo 114 / 96 40% 5 17.01.2028 -
Joel Kojo Navbahor Activo 121 / 114 40% 11 17.01.2028 -
Jonathan Okoronkwo Torpedo Moscow Activo 103 / 100 40% 4 16.01.2028 -
Matija Popović Fakel Activo 115 / 104 40% 1 16.01.2028 -
Merabi Uridia Fakel Activo 100 / 88 40% 12 15.01.2028 -
Ilya Tishurov Osipovichi Activo 73 / 72 40% 4 15.01.2028 -
Omar Popov Dinamo St Petersburg Activo 86 / 95 40% 1 15.01.2028 -
Maxim Maximov Slavia Mozyr Activo 96 / 98 40% 6 14.01.2028 -
Matías Samaniego Talleres Activo 109 / 106 40% 5 12.01.2028 -
Kirill Tsepenkov Dnepr Mogilev Activo 96 / 110 40% 1 12.01.2028 -
Pavel Savitskiy Neman Activo 102 / 97 40% 1 12.01.2028 -
Nikita Simdyankin KDV Tomsk Activo 87 / 94 40% 3 11.01.2028 -
Kirill Cheburakov Rostov Activo 77 / 92 40% 2 11.01.2028 -
Maxim Kutovoy Salyut Activo 81 / 94 40% 6 10.01.2028 -
Vladislav Fedosov Slutsk Activo 80 / 78 40% 3 10.01.2028 -
Guljigit Borubaev Neman Activo 99 / 111 40% 5 10.01.2028 -
Alexander Jeremejeff Persija Activo 119 / 107 40% 8 06.01.2028 -
Milan Ristovski Bhayangkara Presisi Activo 111 / 107 40% 8 06.01.2028 -
Ilja Safronov Rotor Activo 107 / 107 40% 6 05.01.2028 -
Alexey Antilevskiy Slavia Mozyr Activo 88 / 98 40% 8 05.01.2028 -
Jhoao Rodríguez Deportes Quindio Activo 124 / 107 40% 5 05.01.2028 -
Gamid Agalarov Orenburg Activo 116 / 126 40% 2 04.01.2028 -
Razhab Magomedov Dinamo Makhachkala Activo 110 / 105 40% 1 04.01.2028 -
Aleksej Golijanin Sokol Activo 94 / 102 40% 4 02.01.2028 -
Santiago Apa All Boys Activo 116 / 116 40% 6 02.01.2028 -
Surkhaikhan Abdullaev KAMAZ Activo 90 / 88 40% 3 01.01.2028 -
Vladislav Yatskevich BATE Activo 111 / 97 40% 6 01.01.2028 -
Martin Sekulić Ural Activo 109 / 109 40% 15 29.12.2027 -
Karen Vardanyan Dinamo Minsk Activo 92 / 95 40% 5 27.12.2027 -
Marco Miori Alvarado Activo 109 / 113 40% 1 27.12.2027 -
Sergio Castel Persik Activo 119 / 120 40% 8 23.12.2027 -
Uroš Kojić AGMK Activo 98 / 103 40% 7 23.12.2027 -
Fortune Bassey Bunyodkor Activo 99 / 95 40% 6 21.12.2027 -
Daouda Natama Minsk Activo 93 / 86 40% 6 20.12.2027 -
Riquelme Madura United Activo 109 / 109 40% 4 20.12.2027 -
Steven Alfred Torpedo-BelAZ Activo 106 / 90 40% 6 18.12.2027 -
Toma Tabatadze Kokand 1912 Activo 98 / 96 40% 5 18.12.2027 -
Imeda Ashortia Andijon Activo 103 / 108 40% 3 17.12.2027 -
Luca Franco Arsenal Activo 100 / 107 40% 4 16.12.2027 -
Roman Paparyga Qizilqum Activo 99 / 101 40% 5 16.12.2027 -
Uilliam Barros Persib Activo 111 / 97 40% 2 16.12.2027 -
Aziz Xolmurodov AGMK Activo 104 / 104 40% 2 15.12.2027 -
Zoran Marušić Neftchi Activo 115 / 102 40% 2 15.12.2027 -
Shohnazar Norbekov Mashal Activo 94 / 87 40% 5 10.12.2027 -
Asadbek Jo'raboyev Bukhara Activo 93 / 97 40% 5 09.12.2027 -
Andrey Solovey Slavia Mozyr Activo 98 / 101 40% 4 06.12.2027 -
Vlatko Stojanovski Mashal Activo 101 / 100 40% 4 05.12.2027 -
Camilo Machado Madryn Activo 111 / 106 40% 1 30.11.2027 -
Luka Đorđević Sogdiana Activo 104 / 91 40% 2 29.11.2027 -
Ljupce Doriev Sogdiana Activo 112 / 102 40% 1 28.11.2027 -
Martin Boakye Andijon Activo 114 / 102 40% 1 26.11.2027 -
Sergey Pushnyakov Neman Activo 89 / 95 40% 3 22.11.2027 -
Dominik Begić Bukhara Activo 95 / 90 40% 2 22.11.2027 -
Diego Valencia Astana Activo 113 / 119 40% 1 22.11.2027 -
Diego Campos Bali United Activo 109 / 102 40% 3 19.11.2027 -
Arseniy Zhukovskiy Slonim Activo 90 / 69 40% 3 17.11.2027 -
Amir Nematov Obod Activo 96 / 95 40% 2 17.11.2027 -
Nuriddin Nuriddinov Mashal Activo 93 / 78 40% 1 10.11.2027 -
Timur Masharipov Obod Activo 87 / 89 40% 6 06.11.2027 -
Andrew Jung Persib Activo 103 / 99 40% 2 31.10.2027 -
Igor Monich Naftan Activo 73 / 70 40% 2 31.10.2027 -
Rubin Hebaj Tobol Activo 120 / 106 40% 1 26.10.2027 -
Bobur Abdiholiqov Nasaf Activo 106 / 106 40% 1 23.10.2027 -
Gustavo Viera Cerro Largo Activo 107 / 105 40% 2 19.10.2027 -
Luka Čumić PSM Activo 97 / 91 40% 1 19.10.2027 -
Mauro Valiente Estudiantes Activo 118 / 112 40% 1 17.10.2027 -
Izzatullo Abdulhaqov Mashal Activo 82 / 94 40% 2 14.10.2027 -
Adrián Dalmau PSIM Activo 101 / 112 40% 1 12.10.2027 -
Júnior Brandão Madura United Activo 105 / 114 40% 3 08.10.2027 -
Oleksiy Shchebetun Qizilqum Activo 101 / 88 40% 1 02.10.2027 -
Valdeci Arema Activo 106 / 98 40% 1 30.09.2027 -
Denis M. Kovalevich Dinamo Brest Activo 109 / 86 40% 1 19.09.2027 -
Evgeniy Shevchenko Slavia Mozyr Activo 89 / 92 40% 1 18.09.2027 -
Hleb Shikavka Lokomotiv Gomel Activo 72 / 76 40% 1 17.09.2027 -
Daniil Kulikov Belshina Activo 83 / 80 40% 1 16.09.2027 -
Alejandro Melo FC Lahti Activo 122 / 101 40% 2 13.09.2027 -
Nikita Golub Belshina Activo 80 / 72 40% 1 10.09.2027 -
Valeriy Gorbachik Arsenal Dzerzhinsk Activo 95 / 76 40% 1 09.09.2027 -
Ivan Tolkachev Arsenal Dzerzhinsk Activo 70 / 71 40% 1 09.09.2027 -
Jort van der Sande Bali United Activo 110 / 112 40% 1 08.09.2027 -
Ayman Sellouf Ordabasy Activo 96 / 89 40% 1 31.08.2027 -
Dmitriy Vashkevich Dinamo Brest Activo 75 / 77 40% 1 27.08.2027 -
Suleiman Abdullahi Atyrau Activo 103 / 106 40% 2 21.08.2027 -
Egor Yuschenko Lida Activo 78 / 78 40% 1 21.08.2027 -
Danilo Santacruz Madura United Activo 109 / 109 40% 1 17.08.2027 -
Léo Natel Ordabasy Activo 116 / 111 40% 2 16.08.2027 -
Roman Gribovskiy Activo 83 / 94 40% 1 14.08.2027 -
Edmilson Kairat Activo 119 / 114 40% 1 14.08.2027 -
Jesse Akila Taraz Activo 111 / 109 40% 1 26.07.2027 -
Léo Baptistão Almería Activo 126 / 145 40% 1 24.07.2027 -
Alexandr Butko Isloch Activo 85 / 75 40% 1 19.07.2027 -
Sergey Gaiduk Salyut Activo 72 / 71 40% 2 15.07.2027 -
Kamran Aliev SKA Khabarovsk Activo 99 / 114 40% 5 14.07.2027 -
Vitaly Dunay (Karpenko) Chaika Activo 93 / 82 40% 3 14.07.2027 -
Chinonso Offor Baltika Activo 105 / 117 40% 2 12.07.2027 -
Nikita Kireev Dinamo Vologda Activo 95 / 77 40% 5 12.07.2027 -
Dmitry Kuptsov Spartak Tambov Activo 72 / 90 40% 2 12.07.2027 -
Nikolay Maximov Krylya Sovetov Activo 88 / 58 40% 2 10.07.2027 -
Alexey Skvortsov Activo 84 / 87 40% 3 08.07.2027 -
Alexandr Yushin Torpedo Moscow Activo 102 / 96 40% 2 08.07.2027 -
Amar Rahmanović Krylya Sovetov Activo 107 / 104 40% 3 07.07.2027 -
Jacobo Alcalde SKA Khabarovsk Activo 106 / 94 40% 2 05.07.2027 -
Georgy Melkadze Akhmat Grozny Activo 122 / 120 40% 7 03.07.2027 -
David Karaev KAMAZ Activo 104 / 113 40% 4 03.07.2027 -
Andrey Okladnikov Yenisey Activo 90 / 94 40% 5 27.06.2027 -
Denis Rubanov Dinamo Stavropol Activo 94 / 79 40% 2 27.06.2027 -
Serder Serderov Dinamo Makhachkala Activo 94 / 90 40% 5 26.06.2027 -
Ruslan Apekov Torpedo Moscow Activo 100 / 87 40% 5 25.06.2027 -
Yordy Reyna Rodina Activo 118 / 121 40% 3 25.06.2027 -
Víctor Guzmán Sporting CP Activo 93 / 114 40% 1 24.06.2027 -
François Kamano Sochi Activo 114 / 119 40% 2 23.06.2027 -
Vladimir Khubulov Dinamo Makhachkala Activo 102 / 119 40% 4 22.06.2027 -
Mikhail Gainov Dinamo Stavropol Activo 96 / 70 40% 1 22.06.2027 -
Evgeny Voronin Volga Activo 87 / 76 40% 1 22.06.2027 -
Serikzhan Muzhikov Zhetysu Activo 98 / 111 65% 1 18.06.2027 Aprobar
Stanislav Biblyk Chaika Activo 84 / 103 40% 5 17.06.2027 -
Vasiliy Sovpel Okzhetpes Activo 97 / 101 65% 1 17.06.2027 Aprobar
Amur Kalmykov Spartak Kostroma Activo 100 / 92 40% 3 10.06.2027 -
Said Aliev Rotor Activo 92 / 95 40% 4 08.06.2027 -
Rashid Magomedov Neftekhimik Activo 84 / 93 40% 5 02.06.2027 -
Alexandre Jesus Orenburg Activo 106 / 95 40% 1 31.05.2027 -
Alexandr Saplinov Volga Activo 103 / 88 40% 3 30.05.2027 -
Migran Ageyan Ufa Activo 90 / 95 40% 3 27.05.2027 -
Daniil Agureev Amkar Activo 91 / 88 40% 3 27.05.2027 -
Igor Bugaenko Orel Activo 80 / 58 40% 1 25.05.2027 -
Gevork Sarkisyan Saturn Activo 92 / 73 40% 4 14.05.2027 -
Vladislav Yakovlev Volga Activo 88 / 86 40% 1 05.05.2027 -
Ilja Gruznov Khimik Activo 100 / 74 40% 1 02.05.2027 -
Alexandr Shlenkin Dinamo Bryansk Activo 85 / 80 40% 4 30.04.2027 -
Sergey Gribov Dinamo Bryansk Activo 78 / 85 40% 2 15.04.2027 -
Daniil Kondrakov KDV Tomsk Activo 92 / 97 40% 1 15.04.2027 -
Alexandr Kanaplin Yenisey Activo 82 / 101 40% 1 13.04.2027 -
Gedeon Guzina Orenburg Activo 98 / 117 40% 1 12.04.2027 -
Rizvan Umarov Dinamo St Petersburg Activo 69 / 93 40% 1 10.04.2027 -
Danil Akhatov Ufa Activo 86 / 75 40% 1 07.04.2027 -
Alexey Kashtanov Torpedo Moscow Activo 93 / 98 40% 1 23.03.2027 -
Daniil Arsentjev Orel Activo 66 / 82 40% 1 22.03.2027 -
Oralkhan Ömirtaev Okzhetpes Activo 110 / 106 65% 1 22.02.2027 Aprobar
Abylaikhan Zhūmabek Atyrau Activo 107 / 111 65% 1 30.01.2027 Aprobar
Koffi Kouao Neftchi Activo 126 / 129 40% 1 01.08.2026 -
Zafarmurod Abdurahmatov Nasaf Activo 109 / 117 40% 1 01.08.2026 -
Amine Benchaib Kauno Zalgiris Activo 116 / 92 40% 1 01.08.2026 -